sensor_id;sensor_type;location;lat;lon;timestamp;P1;durP1;ratioP1;P2;durP2;ratioP2
22030;SDS011;11179;52.106;21.024;2023-09-30T00:01:27;23.50;;;11.50;;
22030;SDS011;11179;52.106;21.024;2023-09-30T00:04:06;23.03;;;11.20;;
22030;SDS011;11179;52.106;21.024;2023-09-30T00:06:38;21.33;;;10.80;;
22030;SDS011;11179;52.106;21.024;2023-09-30T00:09:09;49.07;;;13.40;;
22030;SDS011;11179;52.106;21.024;2023-09-30T00:11:37;33.33;;;12.27;;
22030;SDS011;11179;52.106;21.024;2023-09-30T00:14:03;30.13;;;12.43;;
22030;SDS011;11179;52.106;21.024;2023-09-30T00:16:34;19.77;;;10.73;;
22030;SDS011;11179;52.106;21.024;2023-09-30T00:19:02;27.97;;;13.20;;
22030;SDS011;11179;52.106;21.024;2023-09-30T00:21:48;25.90;;;11.67;;
22030;SDS011;11179;52.106;21.024;2023-09-30T00:24:22;21.40;;;12.07;;
22030;SDS011;11179;52.106;21.024;2023-09-30T00:27:12;24.53;;;11.63;;
22030;SDS011;11179;52.106;21.024;2023-09-30T00:29:46;33.70;;;12.70;;
22030;SDS011;11179;52.106;21.024;2023-09-30T00:32:45;24.10;;;11.23;;
22030;SDS011;11179;52.106;21.024;2023-09-30T00:38:49;24.13;;;11.40;;
22030;SDS011;11179;52.106;21.024;2023-09-30T00:44:40;25.60;;;11.80;;
22030;SDS011;11179;52.106;21.024;2023-09-30T00:47:28;21.17;;;11.50;;
22030;SDS011;11179;52.106;21.024;2023-09-30T00:50:16;21.20;;;10.90;;
22030;SDS011;11179;52.106;21.024;2023-09-30T00:52:59;22.93;;;10.67;;
22030;SDS011;11179;52.106;21.024;2023-09-30T01:01:23;22.03;;;11.47;;
22030;SDS011;11179;52.106;21.024;2023-09-30T01:04:14;20.73;;;11.20;;
22030;SDS011;11179;52.106;21.024;2023-09-30T01:07:09;24.43;;;11.70;;
22030;SDS011;11179;52.106;21.024;2023-09-30T01:12:30;20.70;;;11.00;;
22030;SDS011;11179;52.106;21.024;2023-09-30T01:15:12;19.73;;;11.07;;
22030;SDS011;11179;52.106;21.024;2023-09-30T01:17:56;21.70;;;11.23;;
22030;SDS011;11179;52.106;21.024;2023-09-30T01:20:50;23.23;;;10.73;;
22030;SDS011;11179;52.106;21.024;2023-09-30T01:23:50;23.20;;;11.70;;
22030;SDS011;11179;52.106;21.024;2023-09-30T01:26:27;21.83;;;10.73;;
22030;SDS011;11179;52.106;21.024;2023-09-30T01:29:06;24.40;;;11.20;;
22030;SDS011;11179;52.106;21.024;2023-09-30T01:31:39;23.03;;;11.20;;
22030;SDS011;11179;52.106;21.024;2023-09-30T01:34:05;24.73;;;11.47;;
22030;SDS011;11179;52.106;21.024;2023-09-30T01:36:37;26.33;;;12.30;;
22030;SDS011;11179;52.106;21.024;2023-09-30T01:42:12;22.73;;;11.53;;
22030;SDS011;11179;52.106;21.024;2023-09-30T01:44:45;33.10;;;11.70;;
22030;SDS011;11179;52.106;21.024;2023-09-30T01:47:22;20.67;;;11.23;;
22030;SDS011;11179;52.106;21.024;2023-09-30T01:50:19;22.23;;;10.63;;
22030;SDS011;11179;52.106;21.024;2023-09-30T01:52:49;20.80;;;10.50;;
22030;SDS011;11179;52.106;21.024;2023-09-30T01:55:46;28.40;;;12.37;;
22030;SDS011;11179;52.106;21.024;2023-09-30T01:58:34;25.27;;;9.80;;
22030;SDS011;11179;52.106;21.024;2023-09-30T02:01:11;20.50;;;10.60;;
22030;SDS011;11179;52.106;21.024;2023-09-30T02:03:57;20.77;;;10.30;;
22030;SDS011;11179;52.106;21.024;2023-09-30T02:06:34;21.87;;;11.00;;
22030;SDS011;11179;52.106;21.024;2023-09-30T02:09:03;26.27;;;11.13;;
22030;SDS011;11179;52.106;21.024;2023-09-30T02:11:37;25.83;;;10.97;;
22030;SDS011;11179;52.106;21.024;2023-09-30T02:14:06;24.93;;;11.50;;
22030;SDS011;11179;52.106;21.024;2023-09-30T02:16:39;22.23;;;10.77;;
22030;SDS011;11179;52.106;21.024;2023-09-30T02:19:10;18.00;;;10.77;;
22030;SDS011;11179;52.106;21.024;2023-09-30T02:21:41;28.80;;;11.27;;
22030;SDS011;11179;52.106;21.024;2023-09-30T02:24:20;21.27;;;10.97;;
22030;SDS011;11179;52.106;21.024;2023-09-30T02:27:16;23.10;;;11.67;;
22030;SDS011;11179;52.106;21.024;2023-09-30T02:29:49;23.27;;;11.17;;
22030;SDS011;11179;52.106;21.024;2023-09-30T02:32:20;19.87;;;10.83;;
22030;SDS011;11179;52.106;21.024;2023-09-30T02:35:01;21.53;;;11.20;;
22030;SDS011;11179;52.106;21.024;2023-09-30T02:37:32;20.33;;;11.53;;
22030;SDS011;11179;52.106;21.024;2023-09-30T02:40:13;23.07;;;11.20;;
22030;SDS011;11179;52.106;21.024;2023-09-30T02:42:42;22.10;;;10.30;;
22030;SDS011;11179;52.106;21.024;2023-09-30T02:45:19;22.87;;;11.07;;
22030;SDS011;11179;52.106;21.024;2023-09-30T02:47:48;27.00;;;11.40;;
22030;SDS011;11179;52.106;21.024;2023-09-30T02:50:24;19.60;;;10.93;;
22030;SDS011;11179;52.106;21.024;2023-09-30T02:52:58;26.70;;;12.33;;
22030;SDS011;11179;52.106;21.024;2023-09-30T02:55:40;28.73;;;11.63;;
22030;SDS011;11179;52.106;21.024;2023-09-30T02:58:23;23.00;;;11.53;;
22030;SDS011;11179;52.106;21.024;2023-09-30T03:01:04;27.03;;;10.83;;
22030;SDS011;11179;52.106;21.024;2023-09-30T03:03:47;20.47;;;10.20;;
22030;SDS011;11179;52.106;21.024;2023-09-30T03:06:42;30.60;;;12.37;;
22030;SDS011;11179;52.106;21.024;2023-09-30T03:09:23;19.63;;;10.87;;
22030;SDS011;11179;52.106;21.024;2023-09-30T03:11:52;23.20;;;11.60;;
22030;SDS011;11179;52.106;21.024;2023-09-30T03:14:32;21.00;;;11.50;;
22030;SDS011;11179;52.106;21.024;2023-09-30T03:17:12;22.13;;;10.80;;
22030;SDS011;11179;52.106;21.024;2023-09-30T03:19:47;26.90;;;12.97;;
22030;SDS011;11179;52.106;21.024;2023-09-30T03:22:15;21.47;;;11.27;;
22030;SDS011;11179;52.106;21.024;2023-09-30T03:24:44;18.33;;;10.87;;
22030;SDS011;11179;52.106;21.024;2023-09-30T03:27:16;22.57;;;11.60;;
22030;SDS011;11179;52.106;21.024;2023-09-30T03:29:51;25.60;;;11.50;;
22030;SDS011;11179;52.106;21.024;2023-09-30T03:32:19;20.87;;;10.50;;
22030;SDS011;11179;52.106;21.024;2023-09-30T03:34:50;19.10;;;10.47;;
22030;SDS011;11179;52.106;21.024;2023-09-30T03:37:17;23.27;;;11.23;;
22030;SDS011;11179;52.106;21.024;2023-09-30T03:39:55;18.37;;;10.33;;
22030;SDS011;11179;52.106;21.024;2023-09-30T03:42:33;25.60;;;10.57;;
22030;SDS011;11179;52.106;21.024;2023-09-30T03:45:09;24.70;;;10.80;;
22030;SDS011;11179;52.106;21.024;2023-09-30T03:47:39;21.73;;;12.10;;
22030;SDS011;11179;52.106;21.024;2023-09-30T03:50:41;21.43;;;9.90;;
22030;SDS011;11179;52.106;21.024;2023-09-30T03:53:52;20.33;;;10.60;;
22030;SDS011;11179;52.106;21.024;2023-09-30T03:56:26;20.40;;;10.83;;
22030;SDS011;11179;52.106;21.024;2023-09-30T03:59:01;20.83;;;10.20;;
22030;SDS011;11179;52.106;21.024;2023-09-30T04:01:34;17.00;;;10.67;;
22030;SDS011;11179;52.106;21.024;2023-09-30T04:04:07;27.63;;;12.13;;
22030;SDS011;11179;52.106;21.024;2023-09-30T04:06:49;30.30;;;12.00;;
22030;SDS011;11179;52.106;21.024;2023-09-30T04:12:23;25.27;;;10.83;;
22030;SDS011;11179;52.106;21.024;2023-09-30T04:14:56;26.20;;;11.70;;
22030;SDS011;11179;52.106;21.024;2023-09-30T04:17:23;34.37;;;10.80;;
22030;SDS011;11179;52.106;21.024;2023-09-30T04:19:54;22.67;;;10.40;;
22030;SDS011;11179;52.106;21.024;2023-09-30T04:22:28;29.13;;;13.37;;
22030;SDS011;11179;52.106;21.024;2023-09-30T04:25:25;29.93;;;11.80;;
22030;SDS011;11179;52.106;21.024;2023-09-30T04:28:03;24.23;;;10.20;;
22030;SDS011;11179;52.106;21.024;2023-09-30T04:30:46;25.60;;;11.50;;
22030;SDS011;11179;52.106;21.024;2023-09-30T04:33:12;27.83;;;12.00;;
22030;SDS011;11179;52.106;21.024;2023-09-30T04:35:38;49.73;;;14.60;;
22030;SDS011;11179;52.106;21.024;2023-09-30T04:38:06;32.17;;;12.47;;
22030;SDS011;11179;52.106;21.024;2023-09-30T04:40:31;37.37;;;13.67;;
22030;SDS011;11179;52.106;21.024;2023-09-30T04:42:58;34.70;;;12.53;;
22030;SDS011;11179;52.106;21.024;2023-09-30T04:45:24;35.13;;;11.70;;
22030;SDS011;11179;52.106;21.024;2023-09-30T04:47:51;34.60;;;11.13;;
22030;SDS011;11179;52.106;21.024;2023-09-30T04:50:17;31.93;;;10.97;;
22030;SDS011;11179;52.106;21.024;2023-09-30T04:52:46;31.23;;;11.80;;
22030;SDS011;11179;52.106;21.024;2023-09-30T04:55:12;52.37;;;12.93;;
22030;SDS011;11179;52.106;21.024;2023-09-30T04:57:39;34.93;;;13.30;;
22030;SDS011;11179;52.106;21.024;2023-09-30T05:00:05;36.13;;;13.90;;
22030;SDS011;11179;52.106;21.024;2023-09-30T05:02:35;40.83;;;14.53;;
22030;SDS011;11179;52.106;21.024;2023-09-30T05:05:01;38.47;;;12.30;;
22030;SDS011;11179;52.106;21.024;2023-09-30T05:07:26;30.63;;;11.47;;
22030;SDS011;11179;52.106;21.024;2023-09-30T05:09:53;37.87;;;13.80;;
22030;SDS011;11179;52.106;21.024;2023-09-30T05:12:19;24.13;;;12.30;;
22030;SDS011;11179;52.106;21.024;2023-09-30T05:14:45;24.23;;;10.73;;
22030;SDS011;11179;52.106;21.024;2023-09-30T05:17:10;37.50;;;12.70;;
22030;SDS011;11179;52.106;21.024;2023-09-30T05:19:37;50.93;;;14.57;;
22030;SDS011;11179;52.106;21.024;2023-09-30T05:22:02;44.13;;;12.37;;
22030;SDS011;11179;52.106;21.024;2023-09-30T05:24:28;37.63;;;12.33;;
22030;SDS011;11179;52.106;21.024;2023-09-30T05:26:54;40.13;;;12.13;;
22030;SDS011;11179;52.106;21.024;2023-09-30T05:29:19;29.10;;;11.93;;
22030;SDS011;11179;52.106;21.024;2023-09-30T05:31:45;24.10;;;11.23;;
22030;SDS011;11179;52.106;21.024;2023-09-30T05:34:10;31.17;;;12.60;;
22030;SDS011;11179;52.106;21.024;2023-09-30T05:36:38;22.73;;;11.90;;
22030;SDS011;11179;52.106;21.024;2023-09-30T05:39:03;31.57;;;11.60;;
22030;SDS011;11179;52.106;21.024;2023-09-30T05:41:30;29.87;;;11.43;;
22030;SDS011;11179;52.106;21.024;2023-09-30T05:43:55;26.37;;;11.17;;
22030;SDS011;11179;52.106;21.024;2023-09-30T05:46:21;28.93;;;11.67;;
22030;SDS011;11179;52.106;21.024;2023-09-30T05:48:46;22.03;;;10.27;;
22030;SDS011;11179;52.106;21.024;2023-09-30T05:51:12;25.40;;;12.20;;
22030;SDS011;11179;52.106;21.024;2023-09-30T05:53:40;20.93;;;11.87;;
22030;SDS011;11179;52.106;21.024;2023-09-30T05:56:06;23.73;;;10.77;;
22030;SDS011;11179;52.106;21.024;2023-09-30T05:58:32;23.50;;;12.03;;
22030;SDS011;11179;52.106;21.024;2023-09-30T06:00:57;26.90;;;11.53;;
22030;SDS011;11179;52.106;21.024;2023-09-30T06:03:22;24.97;;;11.60;;
22030;SDS011;11179;52.106;21.024;2023-09-30T06:05:50;24.60;;;11.50;;
22030;SDS011;11179;52.106;21.024;2023-09-30T06:08:15;22.00;;;11.97;;
22030;SDS011;11179;52.106;21.024;2023-09-30T06:10:41;19.93;;;11.87;;
22030;SDS011;11179;52.106;21.024;2023-09-30T06:13:09;27.03;;;12.40;;
22030;SDS011;11179;52.106;21.024;2023-09-30T06:15:42;22.53;;;10.73;;
22030;SDS011;11179;52.106;21.024;2023-09-30T06:18:08;23.50;;;11.10;;
22030;SDS011;11179;52.106;21.024;2023-09-30T06:20:35;17.40;;;10.53;;
22030;SDS011;11179;52.106;21.024;2023-09-30T06:23:00;17.80;;;10.20;;
22030;SDS011;11179;52.106;21.024;2023-09-30T06:25:26;20.30;;;9.90;;
22030;SDS011;11179;52.106;21.024;2023-09-30T06:27:52;19.67;;;10.20;;
22030;SDS011;11179;52.106;21.024;2023-09-30T06:30:19;17.37;;;9.90;;
22030;SDS011;11179;52.106;21.024;2023-09-30T06:32:46;21.23;;;10.37;;
22030;SDS011;11179;52.106;21.024;2023-09-30T06:35:11;17.20;;;8.83;;
22030;SDS011;11179;52.106;21.024;2023-09-30T06:37:37;18.00;;;9.30;;
22030;SDS011;11179;52.106;21.024;2023-09-30T06:40:04;19.33;;;8.63;;
22030;SDS011;11179;52.106;21.024;2023-09-30T06:42:33;16.80;;;9.47;;
22030;SDS011;11179;52.106;21.024;2023-09-30T06:44:59;18.50;;;9.00;;
22030;SDS011;11179;52.106;21.024;2023-09-30T06:48:07;17.60;;;9.37;;
22030;SDS011;11179;52.106;21.024;2023-09-30T06:51:02;22.33;;;8.83;;
22030;SDS011;11179;52.106;21.024;2023-09-30T06:53:37;16.27;;;9.60;;
22030;SDS011;11179;52.106;21.024;2023-09-30T06:56:05;22.90;;;9.07;;
22030;SDS011;11179;52.106;21.024;2023-09-30T06:58:56;23.13;;;9.67;;
22030;SDS011;11179;52.106;21.024;2023-09-30T07:01:21;29.13;;;11.90;;
22030;SDS011;11179;52.106;21.024;2023-09-30T07:03:49;17.07;;;9.90;;
22030;SDS011;11179;52.106;21.024;2023-09-30T07:06:21;21.10;;;11.00;;
22030;SDS011;11179;52.106;21.024;2023-09-30T07:08:47;23.63;;;11.13;;
22030;SDS011;11179;52.106;21.024;2023-09-30T07:11:13;19.27;;;10.40;;
22030;SDS011;11179;52.106;21.024;2023-09-30T07:13:38;21.77;;;11.67;;
22030;SDS011;11179;52.106;21.024;2023-09-30T07:16:20;22.20;;;10.40;;
22030;SDS011;11179;52.106;21.024;2023-09-30T07:19:14;20.30;;;11.23;;
22030;SDS011;11179;52.106;21.024;2023-09-30T07:21:46;20.63;;;11.70;;
22030;SDS011;11179;52.106;21.024;2023-09-30T07:24:12;23.40;;;10.70;;
22030;SDS011;11179;52.106;21.024;2023-09-30T07:26:56;29.73;;;11.83;;
22030;SDS011;11179;52.106;21.024;2023-09-30T07:29:28;23.50;;;12.73;;
22030;SDS011;11179;52.106;21.024;2023-09-30T07:32:13;25.37;;;12.50;;
22030;SDS011;11179;52.106;21.024;2023-09-30T07:35:04;17.90;;;11.23;;
22030;SDS011;11179;52.106;21.024;2023-09-30T07:37:34;25.27;;;12.50;;
22030;SDS011;11179;52.106;21.024;2023-09-30T07:40:01;27.80;;;12.77;;
22030;SDS011;11179;52.106;21.024;2023-09-30T07:42:26;18.67;;;11.13;;
22030;SDS011;11179;52.106;21.024;2023-09-30T07:44:51;20.20;;;11.00;;
22030;SDS011;11179;52.106;21.024;2023-09-30T07:47:35;22.20;;;12.00;;
22030;SDS011;11179;52.106;21.024;2023-09-30T07:53:35;25.63;;;12.23;;
22030;SDS011;11179;52.106;21.024;2023-09-30T07:59:01;19.43;;;12.60;;
22030;SDS011;11179;52.106;21.024;2023-09-30T08:01:36;21.13;;;12.63;;
22030;SDS011;11179;52.106;21.024;2023-09-30T08:04:07;28.77;;;13.07;;
22030;SDS011;11179;52.106;21.024;2023-09-30T08:07:02;30.70;;;12.33;;
22030;SDS011;11179;52.106;21.024;2023-09-30T08:09:30;28.83;;;13.13;;
22030;SDS011;11179;52.106;21.024;2023-09-30T08:11:58;25.67;;;13.17;;
22030;SDS011;11179;52.106;21.024;2023-09-30T08:14:24;25.07;;;12.67;;
22030;SDS011;11179;52.106;21.024;2023-09-30T08:16:49;21.10;;;10.30;;
22030;SDS011;11179;52.106;21.024;2023-09-30T08:19:14;20.57;;;11.87;;
22030;SDS011;11179;52.106;21.024;2023-09-30T08:21:40;21.87;;;12.13;;
22030;SDS011;11179;52.106;21.024;2023-09-30T08:24:05;22.90;;;13.00;;
22030;SDS011;11179;52.106;21.024;2023-09-30T08:26:31;22.97;;;12.47;;
22030;SDS011;11179;52.106;21.024;2023-09-30T08:29:01;29.43;;;12.60;;
22030;SDS011;11179;52.106;21.024;2023-09-30T08:31:27;21.30;;;12.03;;
22030;SDS011;11179;52.106;21.024;2023-09-30T08:33:53;23.40;;;12.27;;
22030;SDS011;11179;52.106;21.024;2023-09-30T08:36:18;20.70;;;10.87;;
22030;SDS011;11179;52.106;21.024;2023-09-30T08:38:43;22.40;;;11.90;;
22030;SDS011;11179;52.106;21.024;2023-09-30T08:41:09;20.97;;;11.30;;
22030;SDS011;11179;52.106;21.024;2023-09-30T08:43:39;21.67;;;12.13;;
22030;SDS011;11179;52.106;21.024;2023-09-30T08:46:05;22.40;;;12.00;;
22030;SDS011;11179;52.106;21.024;2023-09-30T08:48:34;22.50;;;12.43;;
22030;SDS011;11179;52.106;21.024;2023-09-30T08:51:00;24.30;;;13.20;;
22030;SDS011;11179;52.106;21.024;2023-09-30T08:53:27;22.57;;;13.30;;
22030;SDS011;11179;52.106;21.024;2023-09-30T08:55:54;21.60;;;12.27;;
22030;SDS011;11179;52.106;21.024;2023-09-30T08:58:24;22.87;;;12.40;;
22030;SDS011;11179;52.106;21.024;2023-09-30T09:00:52;23.50;;;12.50;;
22030;SDS011;11179;52.106;21.024;2023-09-30T09:03:20;30.43;;;14.07;;
22030;SDS011;11179;52.106;21.024;2023-09-30T09:05:46;30.73;;;13.30;;
22030;SDS011;11179;52.106;21.024;2023-09-30T09:08:12;21.50;;;12.17;;
22030;SDS011;11179;52.106;21.024;2023-09-30T09:10:49;22.40;;;13.13;;
22030;SDS011;11179;52.106;21.024;2023-09-30T09:13:20;23.37;;;12.47;;
22030;SDS011;11179;52.106;21.024;2023-09-30T09:15:45;26.47;;;14.13;;
22030;SDS011;11179;52.106;21.024;2023-09-30T09:18:10;24.27;;;13.50;;
22030;SDS011;11179;52.106;21.024;2023-09-30T09:20:38;28.23;;;13.27;;
22030;SDS011;11179;52.106;21.024;2023-09-30T09:23:04;24.30;;;14.93;;
22030;SDS011;11179;52.106;21.024;2023-09-30T09:25:33;28.97;;;16.00;;
22030;SDS011;11179;52.106;21.024;2023-09-30T09:28:03;31.07;;;15.23;;
22030;SDS011;11179;52.106;21.024;2023-09-30T09:30:29;27.70;;;15.90;;
22030;SDS011;11179;52.106;21.024;2023-09-30T09:38:16;25.87;;;15.43;;
22030;SDS011;11179;52.106;21.024;2023-09-30T09:40:41;29.37;;;17.67;;
22030;SDS011;11179;52.106;21.024;2023-09-30T09:43:06;26.57;;;15.93;;
22030;SDS011;11179;52.106;21.024;2023-09-30T09:45:38;29.50;;;17.93;;
22030;SDS011;11179;52.106;21.024;2023-09-30T09:48:04;34.47;;;18.30;;
22030;SDS011;11179;52.106;21.024;2023-09-30T09:50:30;30.40;;;17.07;;
22030;SDS011;11179;52.106;21.024;2023-09-30T09:52:58;30.47;;;17.00;;
22030;SDS011;11179;52.106;21.024;2023-09-30T09:55:25;31.97;;;17.60;;
22030;SDS011;11179;52.106;21.024;2023-09-30T09:57:52;32.40;;;18.97;;
22030;SDS011;11179;52.106;21.024;2023-09-30T10:00:26;37.17;;;19.13;;
22030;SDS011;11179;52.106;21.024;2023-09-30T10:02:52;32.77;;;19.17;;
22030;SDS011;11179;52.106;21.024;2023-09-30T10:05:18;34.23;;;17.77;;
22030;SDS011;11179;52.106;21.024;2023-09-30T10:10:20;28.50;;;16.47;;
22030;SDS011;11179;52.106;21.024;2023-09-30T10:12:48;35.33;;;17.30;;
22030;SDS011;11179;52.106;21.024;2023-09-30T10:18:04;37.90;;;17.73;;
22030;SDS011;11179;52.106;21.024;2023-09-30T10:20:37;31.00;;;17.17;;
22030;SDS011;11179;52.106;21.024;2023-09-30T10:25:44;34.70;;;15.50;;
22030;SDS011;11179;52.106;21.024;2023-09-30T10:39:01;18.70;;;10.07;;
22030;SDS011;11179;52.106;21.024;2023-09-30T10:46:49;20.07;;;8.50;;
22030;SDS011;11179;52.106;21.024;2023-09-30T10:49:36;18.53;;;6.77;;
22030;SDS011;11179;52.106;21.024;2023-09-30T10:52:03;15.37;;;6.40;;
22030;SDS011;11179;52.106;21.024;2023-09-30T10:54:29;11.70;;;5.40;;
22030;SDS011;11179;52.106;21.024;2023-09-30T10:56:56;11.47;;;4.90;;
22030;SDS011;11179;52.106;21.024;2023-09-30T10:59:27;13.80;;;5.10;;
22030;SDS011;11179;52.106;21.024;2023-09-30T11:01:57;12.53;;;4.87;;
22030;SDS011;11179;52.106;21.024;2023-09-30T11:04:23;12.53;;;3.83;;
22030;SDS011;11179;52.106;21.024;2023-09-30T11:06:48;6.33;;;2.60;;
22030;SDS011;11179;52.106;21.024;2023-09-30T11:09:17;8.20;;;3.00;;
22030;SDS011;11179;52.106;21.024;2023-09-30T11:16:52;5.10;;;2.20;;
22030;SDS011;11179;52.106;21.024;2023-09-30T11:19:19;7.93;;;2.10;;
22030;SDS011;11179;52.106;21.024;2023-09-30T11:21:49;6.87;;;2.63;;
22030;SDS011;11179;52.106;21.024;2023-09-30T11:24:19;6.70;;;2.20;;
22030;SDS011;11179;52.106;21.024;2023-09-30T11:26:45;5.37;;;1.87;;
22030;SDS011;11179;52.106;21.024;2023-09-30T11:29:15;6.33;;;2.17;;
22030;SDS011;11179;52.106;21.024;2023-09-30T11:31:42;6.40;;;2.77;;
22030;SDS011;11179;52.106;21.024;2023-09-30T11:34:09;5.57;;;2.23;;
22030;SDS011;11179;52.106;21.024;2023-09-30T11:36:37;7.73;;;2.60;;
22030;SDS011;11179;52.106;21.024;2023-09-30T11:39:05;8.27;;;2.37;;
22030;SDS011;11179;52.106;21.024;2023-09-30T11:41:34;10.90;;;2.73;;
22030;SDS011;11179;52.106;21.024;2023-09-30T11:44:06;10.70;;;2.63;;
22030;SDS011;11179;52.106;21.024;2023-09-30T11:46:54;9.77;;;2.80;;
22030;SDS011;11179;52.106;21.024;2023-09-30T11:49:53;9.33;;;2.70;;
22030;SDS011;11179;52.106;21.024;2023-09-30T11:52:25;16.20;;;3.67;;
22030;SDS011;11179;52.106;21.024;2023-09-30T11:54:52;10.40;;;3.53;;
22030;SDS011;11179;52.106;21.024;2023-09-30T11:57:18;9.47;;;3.30;;
22030;SDS011;11179;52.106;21.024;2023-09-30T11:59:44;11.40;;;3.20;;
22030;SDS011;11179;52.106;21.024;2023-09-30T12:02:11;15.87;;;4.73;;
22030;SDS011;11179;52.106;21.024;2023-09-30T12:04:37;9.93;;;3.97;;
22030;SDS011;11179;52.106;21.024;2023-09-30T12:07:03;7.57;;;3.20;;
22030;SDS011;11179;52.106;21.024;2023-09-30T12:09:29;16.60;;;4.10;;
22030;SDS011;11179;52.106;21.024;2023-09-30T12:11:56;17.70;;;5.20;;
22030;SDS011;11179;52.106;21.024;2023-09-30T12:14:25;13.00;;;4.13;;
22030;SDS011;11179;52.106;21.024;2023-09-30T12:16:50;13.60;;;4.00;;
22030;SDS011;11179;52.106;21.024;2023-09-30T12:19:16;12.53;;;3.90;;
22030;SDS011;11179;52.106;21.024;2023-09-30T12:21:43;9.40;;;3.90;;
22030;SDS011;11179;52.106;21.024;2023-09-30T12:24:11;10.90;;;3.20;;
22030;SDS011;11179;52.106;21.024;2023-09-30T12:26:41;12.83;;;3.93;;
22030;SDS011;11179;52.106;21.024;2023-09-30T12:29:07;12.80;;;4.00;;
22030;SDS011;11179;52.106;21.024;2023-09-30T12:31:34;13.70;;;4.30;;
22030;SDS011;11179;52.106;21.024;2023-09-30T12:33:59;14.73;;;4.07;;
22030;SDS011;11179;52.106;21.024;2023-09-30T12:36:24;11.17;;;3.97;;
22030;SDS011;11179;52.106;21.024;2023-09-30T12:38:50;15.03;;;4.20;;
22030;SDS011;11179;52.106;21.024;2023-09-30T12:41:15;10.20;;;3.30;;
22030;SDS011;11179;52.106;21.024;2023-09-30T12:43:40;8.97;;;3.83;;
22030;SDS011;11179;52.106;21.024;2023-09-30T12:46:07;14.77;;;4.17;;
22030;SDS011;11179;52.106;21.024;2023-09-30T12:48:34;13.60;;;4.03;;
22030;SDS011;11179;52.106;21.024;2023-09-30T12:50:59;13.93;;;4.03;;
22030;SDS011;11179;52.106;21.024;2023-09-30T12:53:24;12.77;;;3.77;;
22030;SDS011;11179;52.106;21.024;2023-09-30T12:55:50;15.57;;;3.70;;
22030;SDS011;11179;52.106;21.024;2023-09-30T12:58:15;17.53;;;3.80;;
22030;SDS011;11179;52.106;21.024;2023-09-30T13:00:40;11.60;;;3.70;;
22030;SDS011;11179;52.106;21.024;2023-09-30T13:06:33;13.33;;;3.17;;
22030;SDS011;11179;52.106;21.024;2023-09-30T13:09:00;12.50;;;3.63;;
22030;SDS011;11179;52.106;21.024;2023-09-30T13:11:33;12.63;;;3.17;;
22030;SDS011;11179;52.106;21.024;2023-09-30T13:13:59;14.70;;;3.83;;
22030;SDS011;11179;52.106;21.024;2023-09-30T13:16:24;12.80;;;3.03;;
22030;SDS011;11179;52.106;21.024;2023-09-30T13:18:49;10.10;;;3.03;;
22030;SDS011;11179;52.106;21.024;2023-09-30T13:21:17;13.20;;;4.00;;
22030;SDS011;11179;52.106;21.024;2023-09-30T13:23:42;13.37;;;4.43;;
22030;SDS011;11179;52.106;21.024;2023-09-30T13:26:08;10.00;;;2.97;;
22030;SDS011;11179;52.106;21.024;2023-09-30T13:28:39;10.33;;;2.90;;
22030;SDS011;11179;52.106;21.024;2023-09-30T13:31:08;11.50;;;3.00;;
22030;SDS011;11179;52.106;21.024;2023-09-30T13:33:35;13.43;;;2.70;;
22030;SDS011;11179;52.106;21.024;2023-09-30T13:36:00;9.03;;;3.10;;
22030;SDS011;11179;52.106;21.024;2023-09-30T13:38:27;8.07;;;2.50;;
22030;SDS011;11179;52.106;21.024;2023-09-30T13:40:52;11.40;;;3.60;;
22030;SDS011;11179;52.106;21.024;2023-09-30T13:43:17;7.33;;;2.57;;
22030;SDS011;11179;52.106;21.024;2023-09-30T13:45:46;9.07;;;3.50;;
22030;SDS011;11179;52.106;21.024;2023-09-30T13:48:15;10.87;;;3.00;;
22030;SDS011;11179;52.106;21.024;2023-09-30T13:50:48;14.53;;;2.70;;
22030;SDS011;11179;52.106;21.024;2023-09-30T13:53:14;10.83;;;2.73;;
22030;SDS011;11179;52.106;21.024;2023-09-30T13:55:42;7.20;;;2.33;;
22030;SDS011;11179;52.106;21.024;2023-09-30T13:58:08;13.47;;;3.13;;
22030;SDS011;11179;52.106;21.024;2023-09-30T14:00:34;8.93;;;2.90;;
22030;SDS011;11179;52.106;21.024;2023-09-30T14:02:59;11.43;;;2.80;;
22030;SDS011;11179;52.106;21.024;2023-09-30T14:05:25;10.47;;;3.03;;
22030;SDS011;11179;52.106;21.024;2023-09-30T14:07:50;13.10;;;3.10;;
22030;SDS011;11179;52.106;21.024;2023-09-30T14:10:16;11.60;;;2.30;;
22030;SDS011;11179;52.106;21.024;2023-09-30T14:12:41;13.20;;;3.30;;
22030;SDS011;11179;52.106;21.024;2023-09-30T14:15:07;10.00;;;3.30;;
22030;SDS011;11179;52.106;21.024;2023-09-30T14:17:33;13.03;;;3.53;;
22030;SDS011;11179;52.106;21.024;2023-09-30T14:20:00;10.37;;;2.77;;
22030;SDS011;11179;52.106;21.024;2023-09-30T14:22:25;12.17;;;3.30;;
22030;SDS011;11179;52.106;21.024;2023-09-30T14:24:51;11.40;;;3.83;;
22030;SDS011;11179;52.106;21.024;2023-09-30T14:27:16;11.83;;;3.10;;
22030;SDS011;11179;52.106;21.024;2023-09-30T14:29:41;14.17;;;2.90;;
22030;SDS011;11179;52.106;21.024;2023-09-30T14:32:08;10.60;;;2.97;;
22030;SDS011;11179;52.106;21.024;2023-09-30T14:34:33;8.27;;;2.30;;
22030;SDS011;11179;52.106;21.024;2023-09-30T14:40:11;10.33;;;3.10;;
22030;SDS011;11179;52.106;21.024;2023-09-30T14:42:37;15.83;;;2.53;;
22030;SDS011;11179;52.106;21.024;2023-09-30T14:45:03;9.20;;;2.57;;
22030;SDS011;11179;52.106;21.024;2023-09-30T14:47:29;8.53;;;2.73;;
22030;SDS011;11179;52.106;21.024;2023-09-30T14:49:54;9.70;;;2.67;;
22030;SDS011;11179;52.106;21.024;2023-09-30T14:52:19;15.77;;;3.40;;
22030;SDS011;11179;52.106;21.024;2023-09-30T14:54:45;10.27;;;2.53;;
22030;SDS011;11179;52.106;21.024;2023-09-30T14:57:13;12.47;;;3.70;;
22030;SDS011;11179;52.106;21.024;2023-09-30T14:59:40;14.33;;;2.97;;
22030;SDS011;11179;52.106;21.024;2023-09-30T15:02:06;10.07;;;3.03;;
22030;SDS011;11179;52.106;21.024;2023-09-30T15:04:35;10.67;;;3.20;;
22030;SDS011;11179;52.106;21.024;2023-09-30T15:07:02;13.50;;;3.03;;
22030;SDS011;11179;52.106;21.024;2023-09-30T15:09:28;9.83;;;2.90;;
22030;SDS011;11179;52.106;21.024;2023-09-30T15:11:53;10.70;;;3.37;;
22030;SDS011;11179;52.106;21.024;2023-09-30T15:14:20;16.63;;;3.10;;
22030;SDS011;11179;52.106;21.024;2023-09-30T15:16:45;12.47;;;3.10;;
22030;SDS011;11179;52.106;21.024;2023-09-30T15:19:11;8.07;;;2.70;;
22030;SDS011;11179;52.106;21.024;2023-09-30T15:21:36;11.23;;;3.17;;
22030;SDS011;11179;52.106;21.024;2023-09-30T15:24:02;10.10;;;3.37;;
22030;SDS011;11179;52.106;21.024;2023-09-30T15:26:28;10.60;;;3.17;;
22030;SDS011;11179;52.106;21.024;2023-09-30T15:28:54;7.77;;;2.37;;
22030;SDS011;11179;52.106;21.024;2023-09-30T15:31:19;13.27;;;3.33;;
22030;SDS011;11179;52.106;21.024;2023-09-30T15:33:45;8.60;;;3.10;;
22030;SDS011;11179;52.106;21.024;2023-09-30T15:36:14;15.23;;;3.00;;
22030;SDS011;11179;52.106;21.024;2023-09-30T15:38:43;10.90;;;2.90;;
22030;SDS011;11179;52.106;21.024;2023-09-30T15:41:11;12.77;;;2.97;;
22030;SDS011;11179;52.106;21.024;2023-09-30T15:43:37;13.90;;;3.10;;
22030;SDS011;11179;52.106;21.024;2023-09-30T15:46:03;11.80;;;3.80;;